Time;durP1;ratioP1;P1;durP2;ratioP2;P2;SDS_P1;SDS_P2;PMS_P1;PMS_P2;Temp;Humidity;BMP_temperature;BMP_pressure;BME280_temperature;BME280_humidity;BME280_pressure;Samples;Min_cycle;Max_cycle;Signal;HPM_P1;HPM_P2
2022/10/02 00:00:10;;;;;;;3.33;2.00;;;;;;;10.37;85.96;98440.91;1788338;78;20924;-60
2022/10/02 00:02:46;;;;;;;2.83;1.90;;;;;;;10.36;86.02;98443.12;1825480;78;20959;-60
2022/10/02 00:05:30;;;;;;;2.65;1.95;;;;;;;10.37;86.08;98442.69;1817198;78;20928;-60
2022/10/02 00:08:18;;;;;;;4.58;2.62;;;;;;;10.37;86.13;98446.60;1807416;78;21042;-60
2022/10/02 00:11:02;;;;;;;3.65;2.22;;;;;;;10.38;86.23;98443.88;1825472;78;20972;-60
2022/10/02 00:14:01;;;;;;;2.35;1.90;;;;;;;10.40;86.29;98456.83;1822102;78;20930;-61
2022/10/02 00:16:39;;;;;;;5.15;2.17;;;;;;;10.40;86.40;98458.97;1822921;78;20843;-60
2022/10/02 00:19:05;;;;;;;5.10;2.35;;;;;;;10.40;86.42;98447.70;1823363;78;20903;-60
2022/10/02 00:22:03;;;;;;;4.30;2.40;;;;;;;10.40;86.50;98461.58;1823522;78;21110;-60
2022/10/02 00:24:38;;;;;;;5.42;2.50;;;;;;;10.42;86.51;98454.48;1822120;78;20955;-60
2022/10/02 00:27:16;;;;;;;2.05;1.82;;;;;;;10.44;86.52;98460.42;1818194;77;21030;-61
2022/10/02 00:29:53;;;;;;;2.75;1.70;;;;;;;10.46;86.49;98458.55;1825933;77;20892;-60
2022/10/02 00:32:35;;;;;;;;;;;;;;;10.48;86.65;98456.68;1827136;78;20931;-60
2022/10/02 00:35:25;;;;;;;4.37;2.00;;;;;;;10.50;86.73;98457.42;1821797;78;21164;-60
2022/10/02 00:38:30;;;;;;;6.60;2.00;;;;;;;10.50;86.70;98457.42;1819071;78;20940;-60
2022/10/02 00:41:17;;;;;;;3.25;1.55;;;;;;;10.51;86.77;98465.61;1819431;78;21457;-61
2022/10/02 00:43:49;;;;;;;3.40;2.60;;;;;;;10.53;86.88;98464.22;1812730;78;21484;-62
2022/10/02 00:46:30;;;;;;;1.85;1.62;;;;;;;10.55;86.79;98468.84;1819203;78;20954;-61
2022/10/02 00:49:38;;;;;;;1.82;1.57;;;;;;;10.56;86.92;98463.14;1814250;78;21247;-60
2022/10/02 00:52:13;;;;;;;2.58;2.05;;;;;;;10.56;86.84;98457.92;1822580;78;20948;-60
2022/10/02 00:54:59;;;;;;;4.08;1.85;;;;;;;10.49;86.84;98462.73;1817841;77;20963;-60
2022/10/02 00:57:40;;;;;;;2.83;2.05;;;;;;;10.47;86.98;98464.16;1809417;78;20912;-60
2022/10/02 01:00:11;;;;;;;2.40;1.60;;;;;;;10.48;87.07;98464.51;1809123;77;21007;-60
2022/10/02 01:03:12;;;;;;;2.40;1.75;;;;;;;10.49;87.09;98462.25;1819510;78;21740;-60
2022/10/02 01:05:39;;;;;;;3.52;2.10;;;;;;;10.48;87.21;98461.90;1809517;78;20872;-60
2022/10/02 01:08:06;;;;;;;3.08;1.60;;;;;;;10.51;87.26;98463.00;1823451;78;21384;-60
2022/10/02 01:10:33;;;;;;;;;;;;;;;10.51;87.30;98469.52;1826682;77;20955;-60
2022/10/02 01:13:00;;;;;;;;;;;;;;;10.53;87.40;98462.91;1821764;78;20117;-60
2022/10/02 01:15:37;;;;;;;6.72;1.72;;;;;;;10.56;87.49;98470.97;1812296;77;21025;-60
2022/10/02 01:18:05;;;;;;;3.15;1.60;;;;;;;10.57;87.39;98467.44;1813909;78;20943;-61
2022/10/02 01:20:43;;;;;;;1.95;1.50;;;;;;;10.58;87.46;98474.33;1821111;78;20889;-60
2022/10/02 01:23:33;;;;;;;3.37;1.65;;;;;;;10.57;87.44;98462.22;1793991;78;20995;-60
2022/10/02 01:26:00;;;;;;;1.70;1.37;;;;;;;10.57;87.51;98472.66;1807710;78;20991;-60
2022/10/02 01:28:27;;;;;;;4.10;1.40;;;;;;;10.56;87.52;98473.58;1794382;78;21025;-60
2022/10/02 01:30:59;;;;;;;4.95;1.40;;;;;;;10.59;87.62;98476.02;1810844;78;20995;-60
2022/10/02 01:33:26;;;;;;;4.85;1.72;;;;;;;10.60;87.63;98468.06;1809239;78;22307;-60
2022/10/02 01:35:52;;;;;;;4.07;1.50;;;;;;;10.63;87.68;98476.16;1817919;78;20924;-61
2022/10/02 01:38:22;;;;;;;3.72;1.60;;;;;;;10.64;87.71;98486.95;1790279;78;21495;-60
2022/10/02 01:40:49;;;;;;;2.92;1.37;;;;;;;10.67;87.72;98481.53;1812144;77;21122;-61
2022/10/02 01:43:27;;;;;;;4.42;1.50;;;;;;;10.67;87.68;98473.70;1818073;78;20998;-60
2022/10/02 01:46:20;;;;;;;5.10;2.00;;;;;;;10.65;87.58;98483.43;1811303;78;20923;-60
2022/10/02 01:49:26;;;;;;;6.70;2.22;;;;;;;10.61;87.62;98484.56;1818590;78;20920;-61
2022/10/02 01:52:39;;;;;;;1.82;1.10;;;;;;;10.60;87.64;98493.34;1814162;78;21487;-60
2022/10/02 01:55:23;;;;;;;2.12;1.00;;;;;;;10.56;87.72;98492.72;1822820;78;21872;-60
2022/10/02 01:57:55;;;;;;;2.75;1.05;;;;;;;10.52;87.86;98490.75;1807838;78;20949;-60
2022/10/02 02:00:24;;;;;;;1.50;1.00;;;;;;;10.52;87.92;98490.75;1811426;78;20955;-60
2022/10/02 02:03:22;;;;;;;2.25;1.22;;;;;;;10.52;87.93;98498.58;1768737;78;20899;-60
2022/10/02 02:05:59;;;;;;;2.72;1.10;;;;;;;10.50;87.96;98487.44;1808746;78;21148;-61
2022/10/02 02:09:05;;;;;;;3.22;1.02;;;;;;;10.51;88.00;98500.84;1800392;78;21730;-60
2022/10/02 02:11:35;;;;;;;2.10;0.90;;;;;;;10.51;88.05;98499.53;1797562;77;20944;-60
2022/10/02 02:14:16;;;;;;;4.75;0.90;;;;;;;10.52;88.08;98505.58;1805760;78;21468;-60
2022/10/02 02:16:51;;;;;;;2.15;1.00;;;;;;;10.51;88.04;98499.53;1799929;78;21085;-61
2022/10/02 02:19:28;;;;;;;2.15;1.10;;;;;;;10.50;88.10;98501.79;1801043;78;21027;-60
2022/10/02 02:22:00;;;;;;;2.62;1.02;;;;;;;10.50;88.26;98507.01;1801481;78;21746;-60
2022/10/02 02:24:47;;;;;;;3.58;1.10;;;;;;;10.49;88.29;98509.23;1746792;80;20982;-60
2022/10/02 02:27:16;;;;;;;;;;;;;;;10.49;88.28;98507.92;1685056;83;20979;-60
2022/10/02 02:29:47;;;;;;;1.07;0.90;;;;;;;10.52;88.45;98510.33;1686706;83;20224;-60
2022/10/02 02:32:18;;;;;;;1.67;1.10;;;;;;;10.53;88.49;98505.50;1693832;83;21133;-60
2022/10/02 02:34:52;;;;;;;3.05;1.40;;;;;;;10.53;88.59;98509.41;1752640;80;21767;-60
2022/10/02 02:37:21;;;;;;;3.60;1.30;;;;;;;10.56;88.55;98504.91;1743669;80;20949;-60
2022/10/02 02:40:02;;;;;;;5.12;1.50;;;;;;;10.59;88.56;98507.34;1753666;80;21002;-60
2022/10/02 02:42:33;;;;;;;2.40;1.10;;;;;;;10.60;88.67;98499.86;1750885;79;21000;-60
2022/10/02 02:45:14;;;;;;;3.42;1.40;;;;;;;10.61;88.73;98506.74;1733235;80;20955;-60
2022/10/02 02:47:50;;;;;;;2.12;1.10;;;;;;;10.61;88.75;98507.58;1755216;80;21109;-59
2022/10/02 02:50:44;;;;;;;4.15;0.90;;;;;;;10.61;88.76;98501.52;1762615;80;21480;-60
2022/10/02 02:53:24;;;;;;;3.65;1.10;;;;;;;10.60;88.77;98507.69;1699725;81;21522;-60
2022/10/02 02:55:55;;;;;;;6.45;1.00;;;;;;;10.58;88.82;98510.86;1697047;82;20999;-60
2022/10/02 02:58:33;;;;;;;2.00;0.93;;;;;;;10.57;88.92;98526.17;1705024;82;20987;-61
2022/10/02 03:00:59;;;;;;;5.17;1.20;;;;;;;10.56;88.87;98524.48;1715242;82;21116;-60
2022/10/02 03:03:26;;;;;;;2.17;0.80;;;;;;;10.50;88.80;98520.05;1737540;79;21968;-60
2022/10/02 03:05:59;;;;;;;2.50;0.90;;;;;;;10.46;88.81;98523.79;1754420;81;21455;-60
2022/10/02 03:08:30;;;;;;;3.05;0.78;;;;;;;10.42;88.91;98530.16;1751460;79;21488;-60
2022/10/02 03:11:11;;;;;;;2.85;0.85;;;;;;;10.41;88.80;98524.55;1759408;80;21028;-60
2022/10/02 03:14:01;;;;;;;2.05;0.82;;;;;;;10.38;88.91;98536.50;1752648;79;21099;-60
2022/10/02 03:17:00;;;;;;;1.67;0.85;;;;;;;10.38;89.00;98540.41;1752736;79;20934;-60
2022/10/02 03:19:41;;;;;;;2.27;0.93;;;;;;;10.36;88.98;98538.36;1753043;80;20914;-60
2022/10/02 03:22:50;;;;;;;1.75;0.78;;;;;;;10.34;88.95;98527.22;1759861;79;20981;-61
2022/10/02 03:25:30;;;;;;;4.28;1.07;;;;;;;10.29;89.02;98535.80;1760967;79;20945;-60
2022/10/02 03:28:19;;;;;;;1.00;0.50;;;;;;;10.26;88.97;98539.89;1758943;79;21445;-60
2022/10/02 03:30:47;;;;;;;2.45;0.80;;;;;;;10.22;89.05;98535.78;1723404;81;20932;-60
2022/10/02 03:33:16;;;;;;;1.30;0.68;;;;;;;10.19;88.98;98541.20;1732023;81;20942;-61
2022/10/02 03:35:43;;;;;;;1.12;0.40;;;;;;;10.15;89.02;98537.97;1730120;81;20935;-60
2022/10/02 03:38:13;;;;;;;1.80;0.57;;;;;;;10.12;89.12;98542.55;1726001;81;20970;-61
2022/10/02 03:40:40;;;;;;;4.15;0.60;;;;;;;10.11;89.14;98536.95;1731495;81;21057;-60
2022/10/02 03:43:09;;;;;;;3.95;0.70;;;;;;;10.06;89.17;98534.18;1728764;81;21452;-61
2022/10/02 03:45:36;;;;;;;2.77;0.50;;;;;;;10.03;89.20;98542.20;1720134;81;20900;-60
2022/10/02 03:48:03;;;;;;;2.52;0.60;;;;;;;10.02;89.27;98550.94;1727070;81;20942;-60
2022/10/02 03:50:29;;;;;;;1.25;0.45;;;;;;;10.02;89.24;98545.73;1721641;81;21005;-60
2022/10/02 03:52:56;;;;;;;1.75;0.65;;;;;;;10.02;89.39;98558.77;1724564;81;21113;-60
2022/10/02 03:55:34;;;;;;;1.15;0.37;;;;;;;10.03;89.38;98551.33;1720438;81;21653;-61
2022/10/02 03:58:01;;;;;;;2.67;0.70;;;;;;;10.02;89.40;98541.81;1701151;81;21102;-60
2022/10/02 04:00:39;;;;;;;1.98;0.65;;;;;;;10.01;89.44;98549.28;1707687;81;21072;-60
2022/10/02 04:03:16;;;;;;;3.50;1.05;;;;;;;9.99;89.50;98543.31;1721828;81;21631;-60
2022/10/02 04:05:57;;;;;;;2.15;0.57;;;;;;;9.96;89.44;98546.13;1727668;81;21141;-61
2022/10/02 04:08:29;;;;;;;1.57;0.40;;;;;;;9.94;89.47;98548.02;1797562;78;21492;-60
2022/10/02 04:11:10;;;;;;;2.00;0.82;;;;;;;9.88;89.38;98541.02;1807502;78;20911;-60
2022/10/02 04:13:51;;;;;;;1.40;0.42;;;;;;;9.80;89.63;98546.71;1809829;78;20867;-60
2022/10/02 04:16:23;;;;;;;3.00;0.70;;;;;;;9.78;89.71;98550.73;1804886;78;21510;-60
2022/10/02 04:18:58;;;;;;;7.05;0.72;;;;;;;9.70;89.72;98546.47;1812011;78;21068;-60
2022/10/02 04:21:33;;;;;;;1.20;0.42;;;;;;;9.68;89.67;98540.98;1812739;77;21453;-60
2022/10/02 04:24:23;;;;;;;2.65;0.95;;;;;;;9.62;89.68;98545.63;1812554;78;20937;-60
2022/10/02 04:27:19;;;;;;;4.35;0.50;;;;;;;9.57;89.75;98542.47;1805911;78;21022;-60
2022/10/02 04:30:13;;;;;;;2.17;0.62;;;;;;;9.51;89.76;98548.06;1808782;78;20906;-60
2022/10/02 04:32:40;;;;;;;2.72;0.65;;;;;;;9.44;89.76;98551.13;1798881;78;21701;-60
2022/10/02 04:35:20;;;;;;;4.27;0.50;;;;;;;9.37;89.85;98559.33;1814508;78;21064;-60
2022/10/02 04:38:18;;;;;;;2.85;0.80;;;;;;;9.33;89.80;98559.63;1803734;78;20934;-61
2022/10/02 04:41:16;;;;;;;3.37;0.62;;;;;;;9.30;89.90;98563.69;1812507;77;22927;-61
2022/10/02 04:44:09;;;;;;;2.35;0.78;;;;;;;9.24;89.98;98558.86;1808727;78;20953;-60
2022/10/02 04:46:50;;;;;;;1.45;0.50;;;;;;;9.19;90.02;98558.69;1806554;78;21107;-60
2022/10/02 04:49:43;;;;;;;2.87;1.02;;;;;;;9.18;90.13;98572.62;1815370;78;21565;-60
2022/10/02 04:52:46;;;;;;;2.02;0.60;;;;;;;9.22;90.29;98573.77;1806132;78;21884;-60
2022/10/02 04:55:54;;;;;;;2.90;0.90;;;;;;;9.27;90.43;98573.00;1808972;78;20873;-60
2022/10/02 04:58:47;;;;;;;2.35;0.53;;;;;;;9.30;90.38;98572.81;1797505;78;21012;-60
2022/10/02 05:01:40;;;;;;;1.52;0.47;;;;;;;9.33;90.42;98582.60;1787708;79;21043;-61
2022/10/02 05:04:33;;;;;;;2.50;0.95;;;;;;;9.35;90.49;98575.98;1787535;78;20980;-60
2022/10/02 05:07:27;;;;;;;3.05;0.60;;;;;;;9.39;90.65;98577.48;1788620;78;21037;-60
2022/10/02 05:10:23;;;;;;;2.40;0.50;;;;;;;9.46;90.72;98581.84;1785988;79;20917;-60
2022/10/02 05:13:05;;;;;;;3.15;1.00;;;;;;;9.50;90.75;98581.58;1779284;78;21499;-60
2022/10/02 05:16:05;;;;;;;1.52;0.70;;;;;;;9.56;90.77;98585.11;1773698;80;21104;-61
2022/10/02 05:18:55;;;;;;;3.22;0.90;;;;;;;9.60;90.72;98583.97;1783313;79;20944;-60
2022/10/02 05:21:56;;;;;;;2.37;1.00;;;;;;;9.64;90.86;98588.08;1780528;80;20856;-60
2022/10/02 05:25:05;;;;;;;5.78;1.17;;;;;;;9.68;90.81;98590.50;1783275;80;20920;-60
2022/10/02 05:28:01;;;;;;;3.27;0.85;;;;;;;9.77;91.02;98591.22;1787139;79;20901;-60
2022/10/02 05:30:42;;;;;;;4.22;0.70;;;;;;;9.88;91.06;98590.09;1783022;79;21487;-61
2022/10/02 05:33:32;;;;;;;4.00;0.70;;;;;;;10.01;91.05;98598.83;1724131;82;20999;-61
2022/10/02 05:36:22;;;;;;;4.60;1.00;;;;;;;10.07;91.09;98598.44;1721211;82;20936;-61
2022/10/02 05:39:08;;;;;;;3.62;0.95;;;;;;;10.14;90.92;98613.69;1726221;81;20986;-61
2022/10/02 05:41:52;;;;;;;2.22;0.75;;;;;;;10.17;90.98;98613.52;1718833;82;21539;-61
2022/10/02 05:44:40;;;;;;;2.52;0.80;;;;;;;10.17;91.01;98608.31;1723049;82;21036;-62
2022/10/02 05:47:24;;;;;;;7.65;1.35;;;;;;;10.17;91.03;98614.36;1724894;83;22011;-61
2022/10/02 05:49:56;;;;;;;7.25;1.27;;;;;;;10.18;91.11;98611.27;1723485;81;35407;-61
2022/10/02 05:52:31;;;;;;;3.35;1.10;;;;;;;10.18;91.16;98615.19;1724637;83;20981;-61
2022/10/02 05:55:21;;;;;;;2.90;0.93;;;;;;;10.21;91.26;98620.20;1724210;81;20974;-62
2022/10/02 05:57:53;;;;;;;4.30;1.05;;;;;;;10.25;91.33;98617.77;1725339;82;20987;-62
2022/10/02 06:00:41;;;;;;;3.85;1.17;;;;;;;10.28;91.37;98621.54;1728644;81;20952;-61
2022/10/02 06:03:39;;;;;;;8.08;1.72;;;;;;;10.33;91.38;98627.28;1727773;82;21549;-61
2022/10/02 06:06:22;;;;;;;4.28;1.07;;;;;;;10.38;91.40;98630.44;1728801;81;20943;-59
2022/10/02 06:09:02;;;;;;;5.15;1.37;;;;;;;10.40;91.38;98633.80;1727972;82;21153;-59
2022/10/02 06:11:46;;;;;;;3.50;1.05;;;;;;;10.48;91.67;98626.31;1752626;81;21498;-59
2022/10/02 06:14:44;;;;;;;5.55;1.37;;;;;;;10.63;91.75;98631.48;1750529;80;21024;-60
2022/10/02 06:17:29;;;;;;;6.28;1.52;;;;;;;10.73;91.75;98639.09;1754555;81;20906;-60
2022/10/02 06:20:00;;;;;;;4.90;1.60;;;;;;;10.87;91.77;98639.02;1738512;82;20998;-60
2022/10/02 06:22:44;;;;;;;7.08;2.00;;;;;;;11.00;91.73;98636.89;1736498;82;20950;-61
2022/10/02 06:25:40;;;;;;;6.58;1.25;;;;;;;11.07;91.69;98638.17;1805938;78;21226;-60
2022/10/02 06:28:35;;;;;;;3.17;0.95;;;;;;;11.14;91.72;98639.42;1808090;78;21475;-60
2022/10/02 06:31:12;;;;;;;5.45;1.80;;;;;;;11.22;91.95;98629.30;1810859;78;20918;-61
2022/10/02 06:33:43;;;;;;;8.50;1.85;;;;;;;11.22;91.95;98629.30;1813088;77;21487;-60
2022/10/02 06:36:48;;;;;;;5.92;1.67;;;;;;;11.25;91.67;98635.63;1809136;77;20918;-61
2022/10/02 06:39:35;;;;;;;7.12;1.90;;;;;;;11.28;91.67;98630.66;1812942;78;21079;-60
2022/10/02 06:42:13;;;;;;;6.25;1.57;;;;;;;11.41;92.09;98645.41;1816646;78;20961;-60
2022/10/02 06:45:21;;;;;;;9.13;1.90;;;;;;;11.58;92.02;98635.59;1810637;78;20910;-60
2022/10/02 06:48:11;;;;;;;8.75;3.17;;;;;;;11.72;91.85;98640.70;1809604;78;21013;-60
2022/10/02 06:50:55;;;;;;;6.75;2.90;;;;;;;11.88;91.60;98642.30;1781722;78;21372;-61
2022/10/02 06:54:00;;;;;;;5.90;1.57;;;;;;;12.11;91.99;98644.13;1815717;78;20988;-62
2022/10/02 06:56:56;;;;;;;6.40;2.60;;;;;;;12.25;91.64;98638.74;1819424;78;20973;-63
2022/10/02 06:59:43;;;;;;;7.78;2.80;;;;;;;12.37;91.75;98638.81;1813315;78;21028;-64
2022/10/02 07:02:31;;;;;;;7.85;3.22;;;;;;;12.60;91.86;98639.28;1805743;78;20902;-63
2022/10/02 07:05:25;;;;;;;10.63;3.40;;;;;;;12.71;91.57;98643.26;1748325;81;21512;-63
2022/10/02 07:08:37;;;;;;;8.45;2.58;;;;;;;12.99;91.85;98642.53;1707172;83;21296;-61
2022/10/02 07:11:28;;;;;;;5.10;1.47;;;;;;;13.49;92.04;98643.17;1708865;82;20977;-63
2022/10/02 07:14:26;;;;;;;4.70;1.92;;;;;;;13.62;90.73;98640.45;1747151;80;21176;-61
2022/10/02 07:17:24;;;;;;;3.65;1.57;;;;;;;13.56;90.89;98652.25;1706186;82;21105;-61
2022/10/02 07:20:21;;;;;;;5.15;1.52;;;;;;;13.48;90.34;98657.24;1705302;84;20991;-60
2022/10/02 07:23:26;;;;;;;4.25;1.37;;;;;;;13.20;90.19;98661.91;1702985;83;21078;-62
2022/10/02 07:26:34;;;;;;;5.17;1.52;;;;;;;13.15;90.85;98656.66;1700612;83;21660;-60
2022/10/02 07:29:18;;;;;;;3.58;1.50;;;;;;;13.25;91.08;98663.34;1639282;86;21065;-60
2022/10/02 07:31:58;;;;;;;7.92;1.67;;;;;;;13.30;90.80;98667.80;1641661;85;21047;-61
2022/10/02 07:34:52;;;;;;;6.30;1.82;;;;;;;13.08;90.02;98661.53;1633804;85;21020;-60
2022/10/02 07:37:54;;;;;;;3.50;1.10;;;;;;;12.79;90.12;98668.06;1643089;85;21096;-60
2022/10/02 07:40:42;;;;;;;5.30;1.67;;;;;;;12.52;90.17;98658.67;1637470;86;21098;-60
2022/10/02 07:43:17;;;;;;;5.83;1.40;;;;;;;12.31;90.20;98668.88;1652111;85;21079;-61
2022/10/02 07:46:23;;;;;;;5.00;1.95;;;;;;;12.24;90.61;98673.72;1649785;86;20940;-60
2022/10/02 07:49:35;;;;;;;5.30;1.07;;;;;;;12.34;90.78;98678.30;1649030;85;21001;-61
2022/10/02 07:52:18;;;;;;;3.37;1.60;;;;;;;12.35;90.44;98677.34;1698444;82;21067;-60
2022/10/02 07:55:21;;;;;;;5.45;1.52;;;;;;;12.33;90.52;98681.87;1701628;82;20921;-63
2022/10/02 07:58:08;;;;;;;7.12;1.80;;;;;;;12.35;90.35;98679.95;1667787;84;21105;-61
2022/10/02 08:00:51;;;;;;;5.55;1.60;;;;;;;12.34;90.50;98692.22;1567221;88;21037;-60
2022/10/02 08:03:35;;;;;;;6.05;1.40;;;;;;;12.37;90.48;98688.55;1566598;89;21086;-61
2022/10/02 08:06:04;;;;;;;6.40;1.75;;;;;;;12.35;90.23;98682.58;1584797;86;21011;-61
2022/10/02 08:08:54;;;;;;;3.80;1.07;;;;;;;12.33;90.37;98692.34;1617160;86;21130;-61
2022/10/02 08:11:29;;;;;;;2.60;1.15;;;;;;;12.27;90.10;98681.35;1610688;86;21099;-60
2022/10/02 08:14:14;;;;;;;3.85;1.50;;;;;;;12.18;90.00;98695.54;1616665;86;21052;-61
2022/10/02 08:16:57;;;;;;;4.03;1.50;;;;;;;12.16;90.37;98702.20;1619022;86;21033;-61
2022/10/02 08:19:40;;;;;;;4.15;1.30;;;;;;;12.41;90.86;98692.63;1614086;86;21145;-61
2022/10/02 08:22:30;;;;;;;5.58;1.75;;;;;;;12.61;90.58;98702.51;1615046;86;21110;-61
2022/10/02 08:25:03;;;;;;;5.10;1.40;;;;;;;12.69;90.10;98702.80;1614683;86;21000;-60
2022/10/02 08:27:56;;;;;;;2.52;1.25;;;;;;;12.72;89.92;98694.71;1615341;86;21189;-60
2022/10/02 08:30:22;;;;;;;4.10;1.30;;;;;;;12.69;89.56;98705.41;1616789;86;20986;-61
2022/10/02 08:32:49;;;;;;;4.58;1.55;;;;;;;12.62;89.75;98704.17;1621910;86;21160;-61
2022/10/02 08:35:18;;;;;;;3.52;1.00;;;;;;;12.59;89.69;98704.39;1616810;86;21034;-61
2022/10/02 08:38:11;;;;;;;3.77;1.12;;;;;;;12.54;89.81;98709.12;1704717;80;20992;-61
2022/10/02 08:41:15;;;;;;;3.45;0.80;;;;;;;12.75;90.47;98712.83;1738698;80;21033;-61
2022/10/02 08:44:30;;;;;;;1.72;1.05;;;;;;;13.07;90.45;98704.39;1738178;80;21472;-61
2022/10/02 08:47:26;;;;;;;3.40;1.37;;;;;;;13.32;90.43;98710.47;1769304;80;21583;-61
2022/10/02 08:50:28;;;;;;;2.45;1.00;;;;;;;13.57;90.41;98701.59;1766679;80;21426;-61
2022/10/02 08:53:26;;;;;;;5.80;1.10;;;;;;;13.90;90.37;98703.92;1750755;80;20938;-62
2022/10/02 08:56:13;;;;;;;2.98;1.05;;;;;;;14.10;90.19;98707.97;1687320;83;21575;-61
2022/10/02 08:59:17;;;;;;;4.83;0.98;;;;;;;14.09;89.15;98701.06;1691549;82;21586;-62
2022/10/02 09:02:26;;;;;;;5.10;1.07;;;;;;;13.80;88.59;98705.91;1708298;82;21099;-61
2022/10/02 09:05:20;;;;;;;3.17;1.10;;;;;;;13.70;89.25;98702.83;1706066;82;20985;-60
2022/10/02 09:08:16;;;;;;;4.03;1.17;;;;;;;13.73;89.33;98703.91;1683706;83;20951;-62
2022/10/02 09:11:14;;;;;;;3.52;0.95;;;;;;;13.74;89.11;98708.19;1728482;81;21579;-62
2022/10/02 09:14:13;;;;;;;2.12;0.85;;;;;;;13.61;88.50;98706.50;1688252;83;21063;-61
2022/10/02 09:17:19;;;;;;;3.87;0.90;;;;;;;13.43;88.42;98704.78;1627584;86;21912;-62
2022/10/02 09:20:13;;;;;;;;;;;;;;;13.31;87.91;98711.44;1623179;86;21025;-62
2022/10/02 09:23:18;;;;;;;3.08;0.98;;;;;;;13.13;87.89;98717.03;1635194;85;20481;-62
2022/10/02 09:26:22;;;;;;;1.85;0.80;;;;;;;12.99;87.93;98719.83;1630955;87;20978;-62
2022/10/02 09:28:54;;;;;;;2.12;0.60;;;;;;;12.96;88.22;98716.13;1634650;87;21013;-62
2022/10/02 09:31:46;;;;;;;2.27;0.65;;;;;;;12.92;87.73;98718.63;1629851;86;21615;-63
2022/10/02 09:34:42;;;;;;;3.17;0.68;;;;;;;12.86;87.88;98720.39;1695666;83;21507;-61
2022/10/02 09:37:29;;;;;;;1.85;0.60;;;;;;;12.82;87.78;98721.55;1696925;82;21009;-60
2022/10/02 09:40:25;;;;;;;2.62;0.90;;;;;;;12.78;87.65;98716.17;1642677;87;21574;-61
2022/10/02 09:43:13;;;;;;;1.02;0.50;;;;;;;12.70;87.43;98716.72;1664625;85;21091;-61
2022/10/02 09:45:53;;;;;;;2.02;0.65;;;;;;;12.52;87.04;98728.05;1670685;84;21816;-61
2022/10/02 09:48:52;;;;;;;2.80;0.65;;;;;;;12.36;87.09;98728.28;1654518;86;20994;-62
2022/10/02 09:51:41;;;;;;;1.70;0.70;;;;;;;12.37;87.21;98723.88;1658200;83;21170;-61
2022/10/02 09:54:47;;;;;;;2.60;0.85;;;;;;;12.26;86.87;98724.16;1691409;83;21063;-61
2022/10/02 09:57:48;;;;;;;1.87;0.57;;;;;;;12.18;86.88;98717.30;1688136;83;21497;-61
2022/10/02 10:00:26;;;;;;;3.70;0.80;;;;;;;12.10;86.82;98722.27;1705209;82;21039;-60
2022/10/02 10:03:17;;;;;;;1.98;1.05;;;;;;;12.05;86.82;98736.13;1679811;82;21086;-63
2022/10/02 10:06:06;;;;;;;1.87;0.70;;;;;;;12.09;87.12;98733.66;1682422;83;21555;-62
2022/10/02 10:09:08;;;;;;;1.27;0.40;;;;;;;12.21;87.13;98736.75;1696286;82;21058;-62
2022/10/02 10:12:12;;;;;;;2.12;0.70;;;;;;;12.27;86.93;98725.84;1708397;82;21098;-61
2022/10/02 10:15:08;;;;;;;1.85;0.82;;;;;;;12.45;87.20;98733.34;1647017;85;21238;-61
2022/10/02 10:18:14;;;;;;;1.57;0.70;;;;;;;12.49;86.82;98730.86;1635015;86;21639;-61
2022/10/02 10:20:50;;;;;;;1.82;1.10;;;;;;;12.40;86.08;98730.20;1643522;85;21524;-62
2022/10/02 10:23:42;;;;;;;0.95;0.53;;;;;;;12.23;86.12;98727.47;1631811;85;20990;-61
2022/10/02 10:26:37;;;;;;;2.65;0.78;;;;;;;12.20;86.02;98729.82;1643787;84;21133;-61
2022/10/02 10:29:20;;;;;;;1.55;0.80;;;;;;;12.11;85.88;98733.09;1686880;83;21082;-62
2022/10/02 10:32:10;;;;;;;1.37;1.00;;;;;;;12.15;86.05;98735.84;1690440;84;20955;-61
2022/10/02 10:34:51;;;;;;;1.80;0.82;;;;;;;12.23;86.03;98730.91;1754965;80;21558;-61
2022/10/02 10:40:52;;;;;;;1.47;0.60;;;;;;;12.35;85.75;98741.47;1751925;80;20930;-62
2022/10/02 10:43:41;;;;;;;2.17;0.70;;;;;;;12.36;85.37;98734.00;1744308;80;21570;-61
2022/10/02 10:46:31;;;;;;;1.42;0.60;;;;;;;12.18;85.10;98750.02;1672026;84;20959;-61
2022/10/02 10:49:22;;;;;;;1.92;0.70;;;;;;;12.04;85.21;98755.37;1671507;84;20957;-61
2022/10/02 10:52:07;;;;;;;2.98;1.35;;;;;;;11.98;85.21;98754.48;1714804;81;21005;-61
2022/10/02 10:54:53;;;;;;;2.72;0.90;;;;;;;11.88;85.13;98753.46;1717489;82;21154;-61
2022/10/02 10:57:55;;;;;;;1.22;0.70;;;;;;;11.76;85.01;98761.16;1683758;83;21885;-61
2022/10/02 11:00:25;;;;;;;1.25;0.70;;;;;;;11.69;85.31;98763.81;1713323;81;21488;-61
2022/10/02 11:03:31;;;;;;;3.37;0.95;;;;;;;11.67;85.14;98757.84;1721522;81;20968;-61
2022/10/02 11:06:30;;;;;;;2.47;0.90;;;;;;;11.69;85.38;98759.89;1707080;83;20949;-61
2022/10/02 11:09:31;;;;;;;2.02;0.60;;;;;;;11.69;85.23;98748.12;1717941;81;21026;-61
2022/10/02 11:12:38;;;;;;;2.58;0.72;;;;;;;11.64;84.89;98758.05;1716781;81;21069;-62
2022/10/02 11:15:46;;;;;;;1.55;0.60;;;;;;;11.59;85.13;98762.73;1716201;82;20906;-61
2022/10/02 11:18:37;;;;;;;2.45;0.42;;;;;;;11.60;85.09;98755.28;1718075;82;20965;-61
2022/10/02 11:21:18;;;;;;;1.10;0.53;;;;;;;11.59;84.89;98754.89;1712570;82;20990;-60
2022/10/02 11:24:09;;;;;;;1.10;0.40;;;;;;;11.56;84.88;98765.56;1777178;78;20971;-61
2022/10/02 11:26:58;;;;;;;1.10;0.50;;;;;;;11.56;84.86;98760.33;1789573;78;21068;-61
2022/10/02 11:29:59;;;;;;;2.33;0.70;;;;;;;11.53;84.57;98754.00;1804258;78;20932;-61
2022/10/02 11:33:15;;;;;;;2.10;0.98;;;;;;;11.49;84.72;98764.31;1813669;78;20888;-62
2022/10/02 11:36:04;;;;;;;1.35;0.90;;;;;;;11.51;84.61;98754.56;1802224;78;20909;-61
2022/10/02 11:39:00;;;;;;;2.02;1.00;;;;;;;11.49;84.84;98759.08;1809368;78;20934;-61
2022/10/02 11:41:59;;;;;;;2.50;1.10;;;;;;;11.52;84.91;98766.72;1805224;78;21871;-60
2022/10/02 11:44:33;;;;;;;1.95;1.00;;;;;;;11.56;84.84;98768.17;1809466;78;20928;-61
2022/10/02 11:47:34;;;;;;;1.82;0.80;;;;;;;11.75;85.30;98756.86;1739660;81;20910;-61
2022/10/02 11:50:28;;;;;;;1.70;0.95;;;;;;;11.95;85.08;98759.94;1743304;81;21500;-60
2022/10/02 11:53:21;;;;;;;3.40;0.98;;;;;;;12.13;85.00;98764.36;1729520;81;21065;-61
2022/10/02 11:56:05;;;;;;;5.08;1.32;;;;;;;12.34;85.15;98759.44;1743518;81;21864;-61
2022/10/02 11:58:56;;;;;;;2.35;0.90;;;;;;;12.48;84.72;98759.30;1739667;81;20923;-60
2022/10/02 12:01:46;;;;;;;2.25;0.88;;;;;;;12.59;84.53;98758.55;1743264;81;20934;-61
2022/10/02 12:04:22;;;;;;;1.52;0.80;;;;;;;12.67;84.74;98759.67;1736798;81;20930;-60
2022/10/02 12:07:14;;;;;;;3.00;1.02;;;;;;;12.81;84.64;98753.94;1744489;81;20957;-60
2022/10/02 12:10:23;;;;;;;1.52;0.93;;;;;;;12.98;85.01;98749.61;1747564;81;21739;-61
2022/10/02 12:12:58;;;;;;;4.15;1.05;;;;;;;13.24;85.01;98754.73;1739316;81;20982;-60
2022/10/02 12:15:40;;;;;;;2.87;1.45;;;;;;;13.30;84.62;98756.93;1739301;81;21522;-61
2022/10/02 12:18:28;;;;;;;4.00;1.20;;;;;;;13.22;84.23;98761.42;1741038;81;20935;-61
2022/10/02 12:27:21;;;;;;;2.70;0.98;;;;;;;12.86;84.24;98762.30;1674171;82;20991;-60
2022/10/02 12:30:10;;;;;;;2.87;1.15;;;;;;;12.76;84.35;98764.25;1657357;83;21052;-61
2022/10/02 12:33:09;;;;;;;3.12;1.05;;;;;;;12.73;84.11;98761.86;1713472;81;21530;-61
2022/10/02 12:36:05;;;;;;;4.62;1.37;;;;;;;12.66;84.23;98747.54;1657049;84;21044;-61
2022/10/02 12:38:59;;;;;;;4.12;1.42;;;;;;;12.61;84.29;98736.55;1652946;84;21166;-60
2022/10/02 12:42:01;;;;;;;4.20;1.30;;;;;;;12.51;84.20;98740.28;1659429;84;20950;-61
2022/10/02 12:44:57;;;;;;;4.67;2.42;;;;;;;12.57;84.73;98748.17;1656700;84;21022;-61
2022/10/02 12:47:35;;;;;;;9.23;2.30;;;;;;;12.72;84.83;98743.64;1655629;84;21059;-61
2022/10/02 12:50:41;;;;;;;5.12;1.60;;;;;;;12.86;84.77;98740.03;1649599;84;21081;-60
2022/10/02 12:53:31;;;;;;;4.97;1.57;;;;;;;12.84;84.45;98739.30;1657276;84;21077;-60
2022/10/02 12:56:30;;;;;;;4.03;1.40;;;;;;;12.62;84.24;98747.86;1583180;87;21038;-61
2022/10/02 12:59:02;;;;;;;5.97;1.90;;;;;;;12.39;84.26;98746.88;1607014;87;20962;-61
2022/10/02 13:01:52;;;;;;;1.82;1.10;;;;;;;12.14;84.25;98752.50;1606983;87;21070;-61
2022/10/02 13:04:30;;;;;;;1.10;0.70;;;;;;;11.86;83.83;98751.77;1609162;87;21182;-61
2022/10/02 13:07:50;;;;;;;0.78;0.40;;;;;;;11.45;83.62;98753.67;1589543;89;21076;-60
2022/10/02 13:10:31;;;;;;;2.92;0.55;;;;;;;11.14;83.69;98766.13;1613046;87;21060;-60
2022/10/02 13:13:27;;;;;;;0.78;0.40;;;;;;;10.86;83.93;98771.81;1598049;87;21069;-61
2022/10/02 13:16:24;;;;;;;1.27;0.57;;;;;;;10.65;83.73;98783.63;1595916;87;21041;-61